createdAt,value
2019-04-05T00:02:35.011Z,17.20
2019-04-05T00:08:34.949Z,17.10
2019-04-05T00:17:52.313Z,17.07
2019-04-05T00:29:37.237Z,18.47
2019-04-05T00:35:49.359Z,20.67
2019-04-05T00:42:01.380Z,20.87
2019-04-05T00:48:13.298Z,19.03
2019-04-05T00:54:25.835Z,16.90
2019-04-05T01:00:38.363Z,19.50
2019-04-05T01:06:13.623Z,18.87
2019-04-05T01:12:13.969Z,18.30
2019-04-05T01:18:14.213Z,17.20
2019-04-05T01:27:43.461Z,15.47
2019-04-05T01:33:42.887Z,16.60
2019-04-05T01:39:43.230Z,17.20
2019-04-05T01:45:52.941Z,16.57
2019-04-05T01:51:44.640Z,17.60
2019-04-05T01:57:44.272Z,17.60
2019-04-05T02:03:43.389Z,15.63
2019-04-05T02:09:55.819Z,18.67
2019-04-05T02:16:07.737Z,13.27
2019-04-05T02:22:19.505Z,18.70
2019-04-05T02:31:43.491Z,32.43
2019-04-05T02:37:43.112Z,20.70
2019-04-05T02:43:45.291Z,18.67
2019-04-05T02:49:59.461Z,23.70
2019-04-05T02:56:12.816Z,24.90
2019-04-05T03:02:13.876Z,25.33
2019-04-05T03:07:49.448Z,13.87
2019-04-05T03:14:03.306Z,16.27
2019-04-05T03:20:03.963Z,13.80
2019-04-05T03:26:06.459Z,16.70
2019-04-05T03:35:21.481Z,19.90
2019-04-05T03:41:20.806Z,20.10
2019-04-05T03:47:20.773Z,20.77
2019-04-05T03:53:21.395Z,22.60
2019-04-05T03:59:21.939Z,23.57
2019-04-05T04:05:33.964Z,18.30
2019-04-05T04:11:33.997Z,22.87
2019-04-05T04:17:33.636Z,18.70
2019-04-05T04:23:45.965Z,20.10
2019-04-05T04:29:45.795Z,22.80
2019-04-05T04:38:54.150Z,24.67
2019-04-05T04:44:29.914Z,23.37
2019-04-05T04:50:30.985Z,21.00
2019-04-05T04:56:31.425Z,24.07
2019-04-05T05:02:32.387Z,26.90
2019-04-05T05:08:07.852Z,24.37
2019-04-05T05:14:08.407Z,25.07
2019-04-05T05:20:08.960Z,25.63
2019-04-05T05:26:21.285Z,24.50
2019-04-05T05:32:34.018Z,25.73
2019-04-05T05:42:01.424Z,33.57
2019-04-05T05:48:00.957Z,30.07
2019-04-05T05:54:00.372Z,32.03
2019-04-05T06:00:00.598Z,30.17
2019-04-05T06:06:04.414Z,34.13
2019-04-05T06:12:02.338Z,29.63
2019-04-05T06:18:14.865Z,33.07
2019-04-05T06:24:15.009Z,30.70
2019-04-05T06:30:15.053Z,33.93
2019-04-05T06:36:14.547Z,29.27
2019-04-05T06:45:40.582Z,26.20
2019-04-05T06:51:53.075Z,25.33
2019-04-05T06:58:06.339Z,24.60
2019-04-05T07:04:18.381Z,23.53
2019-04-05T07:10:07.133Z,25.88
2019-04-05T07:16:19.147Z,23.45
2019-04-05T13:51:27.662Z,17.63
2019-04-05T13:53:51.993Z,17.00
2019-04-05T13:56:21.669Z,17.23
2019-04-05T13:58:51.413Z,18.60
2019-04-05T14:01:21.386Z,17.77
2019-04-05T14:03:51.023Z,22.23
2019-04-05T14:06:20.608Z,27.63
2019-04-05T14:08:50.257Z,21.87
2019-04-05T14:11:19.525Z,20.77
2019-04-05T14:13:49.160Z,24.27
2019-04-05T14:16:18.664Z,27.97
2019-04-05T14:18:50.578Z,19.93
2019-04-05T14:21:22.472Z,20.03
2019-04-05T14:23:53.265Z,20.20
2019-04-05T14:26:23.254Z,24.63
2019-04-05T14:28:53.126Z,22.70
2019-04-05T14:31:22.840Z,25.93
2019-04-05T14:33:54.200Z,25.60
2019-04-05T14:36:36.291Z,30.63
2019-04-05T14:39:10.236Z,31.00
2019-04-05T14:41:41.267Z,23.27
2019-04-05T14:44:14.393Z,24.80
2019-04-05T14:46:42.044Z,26.17
2019-04-05T14:49:13.098Z,28.33
2019-04-05T14:51:53.713Z,25.97
2019-04-05T14:54:16.509Z,34.73
2019-04-05T14:56:46.055Z,29.47
2019-04-05T14:59:15.943Z,28.37
2019-04-05T15:01:47.092Z,28.47
2019-04-05T15:04:17.605Z,26.60
2019-04-05T15:06:55.717Z,28.67
2019-04-05T15:12:38.816Z,34.40
2019-04-05T15:15:08.288Z,30.20
2019-04-05T15:17:47.326Z,40.20
2019-04-05T15:20:09.765Z,28.87
2019-04-05T15:22:42.166Z,31.97
2019-04-05T15:25:11.710Z,28.13
2019-04-05T15:27:41.564Z,31.77
2019-04-05T15:30:11.374Z,32.47
2019-04-05T15:32:40.987Z,32.20
2019-04-05T15:35:11.642Z,30.17
2019-04-05T15:37:41.020Z,30.20
2019-04-05T15:40:11.298Z,30.27
2019-04-05T15:42:40.586Z,30.07
2019-04-05T15:45:10.667Z,31.73
2019-04-05T15:47:40.105Z,32.30
2019-04-05T15:50:09.878Z,30.73
2019-04-05T15:52:39.374Z,34.27
2019-04-05T15:55:13.282Z,35.67
2019-04-05T15:57:43.107Z,31.07
2019-04-05T16:00:14.185Z,31.87
2019-04-05T16:02:43.735Z,40.13
2019-04-05T16:05:13.695Z,32.30
2019-04-05T16:07:43.417Z,31.47
2019-04-05T16:10:12.890Z,27.63
2019-04-05T16:12:44.519Z,32.07
2019-04-05T16:15:13.934Z,36.00
2019-04-05T16:17:43.728Z,36.73
2019-04-05T16:20:14.323Z,31.83
2019-04-05T16:22:43.689Z,31.50
2019-04-05T16:25:13.378Z,36.97
2019-04-05T16:27:42.735Z,42.53
2019-04-05T16:30:12.476Z,41.10
2019-04-05T16:32:41.781Z,35.33
2019-04-05T16:35:14.356Z,43.87
2019-04-05T16:37:43.687Z,37.53
2019-04-05T16:40:13.727Z,34.97
2019-04-05T16:42:44.054Z,33.10
2019-04-05T16:45:13.873Z,34.20
2019-04-05T16:47:43.313Z,38.03
2019-04-05T16:50:13.799Z,43.10
2019-04-05T16:52:45.196Z,31.90
2019-04-05T16:55:14.944Z,34.17
2019-04-05T16:57:44.290Z,39.93
2019-04-05T17:00:15.055Z,37.27
2019-04-05T17:02:45.130Z,34.73
2019-04-05T17:05:14.539Z,36.13
2019-04-05T17:07:43.819Z,39.63
2019-04-05T17:10:14.264Z,38.63
2019-04-05T17:12:43.662Z,35.87
2019-04-05T17:15:14.479Z,36.40
2019-04-05T17:17:44.866Z,37.53
2019-04-05T17:20:15.160Z,37.10
2019-04-05T17:22:57.557Z,39.20
2019-04-05T17:25:21.080Z,31.70
2019-04-05T17:27:52.262Z,36.93
2019-04-05T17:30:23.208Z,32.67
2019-04-05T17:32:54.217Z,32.77
2019-04-05T17:35:24.431Z,38.63
2019-04-05T17:37:53.964Z,34.17
2019-04-05T17:40:24.534Z,38.00
2019-04-05T17:43:00.211Z,31.60
2019-04-05T17:45:31.045Z,38.77
2019-04-05T17:48:04.358Z,35.40
2019-04-05T17:50:43.878Z,41.27
2019-04-05T17:53:16.986Z,34.20
2019-04-05T17:55:47.696Z,27.73
2019-04-05T17:58:20.339Z,35.53
2019-04-05T18:00:50.607Z,34.93
2019-04-05T18:03:20.752Z,31.83
2019-04-05T18:05:54.586Z,26.93
2019-04-05T18:08:25.300Z,31.90
2019-04-05T18:10:55.984Z,32.00
2019-04-05T18:13:29.036Z,33.80
2019-04-05T18:16:01.732Z,34.77
2019-04-05T18:18:34.585Z,33.60
2019-04-05T18:21:06.086Z,35.33
2019-04-05T18:23:35.451Z,33.33
2019-04-05T18:26:05.180Z,47.50
2019-04-05T18:28:34.603Z,37.83
2019-04-05T18:31:04.076Z,41.13
2019-04-05T18:33:33.482Z,40.17
2019-04-05T18:36:03.054Z,35.47
2019-04-05T18:38:32.561Z,36.07
2019-04-05T18:41:04.034Z,36.87
2019-04-05T18:43:33.482Z,40.93
2019-04-05T18:46:02.887Z,41.97
2019-04-05T18:48:32.381Z,40.70
2019-04-05T18:51:01.847Z,38.50
2019-04-05T18:53:37.502Z,41.37
2019-04-05T18:56:02.809Z,38.27
2019-04-05T18:58:33.350Z,41.37
2019-04-05T19:01:02.803Z,41.27
2019-04-05T19:03:32.123Z,40.87
2019-04-05T19:06:03.385Z,34.97
2019-04-05T19:08:39.501Z,39.23
2019-04-05T19:11:04.298Z,40.77
2019-04-05T19:13:33.794Z,34.37
2019-04-05T19:16:10.046Z,38.20
2019-04-05T19:18:46.826Z,40.20
2019-04-05T19:21:19.955Z,40.47
2019-04-05T19:23:53.227Z,42.30
2019-04-05T19:26:22.675Z,34.40
2019-04-05T19:28:55.027Z,37.83
2019-04-05T19:49:20.712Z,34.50
2019-04-05T19:51:50.573Z,31.50
2019-04-05T19:54:20.272Z,33.17
2019-04-05T19:56:52.986Z,36.33
2019-04-05T19:59:23.202Z,32.03
2019-04-05T20:01:52.526Z,31.20
2019-04-05T20:04:23.702Z,35.27
2019-04-05T20:06:58.376Z,33.03
2019-04-05T20:09:25.330Z,31.00
2019-04-05T20:11:54.669Z,31.73
2019-04-05T20:14:24.251Z,34.53
2019-04-05T20:16:53.970Z,33.30
2019-04-05T20:19:26.086Z,32.67
2019-04-05T20:21:58.599Z,35.60
2019-04-05T20:24:30.727Z,32.73
2019-04-05T20:27:00.078Z,33.77
2019-04-05T20:29:33.902Z,35.70
2019-04-05T20:32:06.685Z,39.83
2019-04-05T20:34:36.777Z,34.57
2019-04-05T20:37:08.225Z,38.20
2019-04-05T20:39:37.679Z,33.37
2019-04-05T20:42:07.466Z,38.53
2019-04-05T20:44:36.966Z,36.77
2019-04-05T20:47:06.612Z,37.33
2019-04-05T20:49:36.112Z,39.27
2019-04-05T20:52:05.425Z,42.90
2019-04-05T20:54:34.992Z,37.93
2019-04-05T20:57:04.228Z,40.23
2019-04-05T20:59:33.699Z,41.37
2019-04-05T21:02:03.051Z,40.10
2019-04-05T21:04:32.569Z,40.77
2019-04-05T21:07:01.899Z,47.17
2019-04-05T21:09:31.819Z,42.43
2019-04-05T21:12:01.286Z,45.50
2019-04-05T21:14:31.071Z,44.93
2019-04-05T21:17:00.339Z,45.83
2019-04-05T21:19:30.414Z,44.37
2019-04-05T21:21:59.757Z,51.23
2019-04-05T21:24:36.084Z,51.30
2019-04-05T21:27:00.672Z,63.00
2019-04-05T21:29:32.171Z,61.37
2019-04-05T21:32:01.648Z,54.90
2019-04-05T21:34:30.940Z,55.93
2019-04-05T21:37:00.891Z,54.30
2019-04-05T21:39:31.169Z,56.40
2019-04-05T21:42:00.577Z,54.73
2019-04-05T21:44:30.179Z,62.40
2019-04-05T21:46:59.437Z,61.80
2019-04-05T21:49:30.286Z,58.53
2019-04-05T21:51:59.567Z,59.47
2019-04-05T21:54:30.927Z,57.43
2019-04-05T21:57:00.278Z,62.20
2019-04-05T21:59:30.665Z,60.63
2019-04-05T22:02:00.286Z,59.40
2019-04-05T22:04:32.171Z,63.67
2019-04-05T22:07:01.702Z,61.67
2019-04-05T22:09:31.042Z,55.67
2019-04-05T22:12:00.374Z,61.53
2019-04-05T22:14:30.075Z,64.23
2019-04-05T22:16:59.416Z,60.90
2019-04-05T22:19:29.622Z,63.77
2019-04-05T22:21:58.988Z,64.73
2019-04-05T22:24:28.902Z,63.77
2019-04-05T22:26:58.505Z,63.13
2019-04-05T22:29:30.185Z,60.70
2019-04-05T22:31:59.615Z,63.93
2019-04-05T22:34:31.294Z,63.07
2019-04-05T22:37:00.584Z,62.47
2019-04-05T22:39:31.082Z,62.90
2019-04-05T22:42:00.939Z,65.70
2019-04-05T22:44:39.911Z,64.13
2019-04-05T22:47:04.955Z,65.83
2019-04-05T22:49:34.461Z,66.70
2019-04-05T22:52:04.981Z,65.60
2019-04-05T22:54:36.801Z,69.33
2019-04-05T22:57:06.064Z,68.87
2019-04-05T22:59:35.418Z,65.87
2019-04-05T23:02:04.702Z,72.00
2019-04-05T23:04:34.266Z,67.00
2019-04-05T23:07:03.592Z,71.87
2019-04-05T23:09:38.864Z,69.77
2019-04-05T23:12:08.157Z,65.27
2019-04-05T23:14:38.282Z,60.57
2019-04-05T23:17:07.547Z,64.57
2019-04-05T23:19:37.073Z,59.83
2019-04-05T23:22:06.572Z,51.03
2019-04-05T23:24:35.869Z,50.47
2019-04-05T23:27:05.660Z,36.83
2019-04-05T23:29:34.938Z,39.67
2019-04-05T23:32:04.458Z,35.63
2019-04-05T23:34:33.798Z,27.77
2019-04-05T23:37:03.219Z,21.57
2019-04-05T23:39:32.747Z,24.70
2019-04-05T23:42:02.434Z,10.63
2019-04-05T23:44:31.783Z,13.00
2019-04-05T23:47:01.205Z,12.37
2019-04-05T23:49:30.564Z,12.83
2019-04-05T23:51:59.831Z,12.23
2019-04-05T23:54:32.092Z,14.33
2019-04-05T23:57:01.426Z,13.53
2019-04-05T23:59:30.983Z,13.60
